createdAt,value
2019-03-03T00:00:15.775Z,8.10
2019-03-03T00:02:45.479Z,8.23
2019-03-03T00:05:15.739Z,9.07
2019-03-03T00:07:45.382Z,7.93
2019-03-03T00:10:15.683Z,8.00
2019-03-03T00:12:45.279Z,9.00
2019-03-03T00:15:15.695Z,8.80
2019-03-03T00:17:45.316Z,9.00
2019-03-03T00:20:15.972Z,8.63
2019-03-03T00:22:45.888Z,8.27
2019-03-03T00:25:15.951Z,9.07
2019-03-03T00:27:46.819Z,10.07
2019-03-03T00:30:16.540Z,9.53
2019-03-03T00:32:46.259Z,10.13
2019-03-03T00:35:15.877Z,9.40
2019-03-03T00:38:04.372Z,8.67
2019-03-03T00:40:43.916Z,8.03
2019-03-03T00:43:23.675Z,8.90
2019-03-03T00:46:15.718Z,9.23
2019-03-03T00:49:02.152Z,9.23
2019-03-03T00:51:40.695Z,7.87
2019-03-03T00:54:28.263Z,8.73
2019-03-03T00:57:18.299Z,9.67
2019-03-03T01:00:08.277Z,8.93
2019-03-03T01:02:54.429Z,9.60
2019-03-03T01:05:38.519Z,9.40
2019-03-03T01:08:21.338Z,9.07
2019-03-03T01:11:02.015Z,9.50
2019-03-03T01:13:40.509Z,9.00
2019-03-03T01:16:32.239Z,9.30
2019-03-03T01:19:21.067Z,9.13
2019-03-03T01:22:08.352Z,9.10
2019-03-03T01:24:55.597Z,9.40
2019-03-03T01:27:25.985Z,8.60
2019-03-03T01:29:55.592Z,8.40
2019-03-03T01:32:25.151Z,8.10
2019-03-03T01:34:54.818Z,8.20
2019-03-03T01:37:24.361Z,9.50
2019-03-03T01:39:54.102Z,8.10
2019-03-03T01:42:24.693Z,8.57
2019-03-03T01:44:54.420Z,9.03
2019-03-03T01:47:24.055Z,8.40
2019-03-03T01:49:53.725Z,8.43
2019-03-03T01:52:23.282Z,7.97
2019-03-03T01:54:52.822Z,7.33
2019-03-03T01:57:22.592Z,8.10
2019-03-03T01:59:52.152Z,7.70
2019-03-03T02:02:21.861Z,8.10
2019-03-03T02:04:51.475Z,9.17
2019-03-03T02:07:21.138Z,7.70
2019-03-03T02:09:50.710Z,8.23
2019-03-03T02:12:20.442Z,7.63
2019-03-03T02:14:49.990Z,8.13
2019-03-03T02:17:19.787Z,8.50
2019-03-03T02:19:49.497Z,7.07
2019-03-03T02:22:19.209Z,8.03
2019-03-03T02:24:48.740Z,7.27
2019-03-03T02:27:18.502Z,7.07
2019-03-03T02:29:48.066Z,7.80
2019-03-03T02:32:17.739Z,7.40
2019-03-03T02:34:47.388Z,7.20
2019-03-03T02:37:17.007Z,7.40
2019-03-03T02:39:46.711Z,7.37
2019-03-03T02:42:16.445Z,7.20
2019-03-03T02:44:46.471Z,7.77
2019-03-03T02:47:16.036Z,6.20
2019-03-03T02:49:45.621Z,6.10
2019-03-03T02:52:15.143Z,6.80
2019-03-03T02:54:46.608Z,6.77
2019-03-03T02:57:16.456Z,7.07
2019-03-03T02:59:46.068Z,7.23
2019-03-03T03:02:37.587Z,6.77
2019-03-03T03:05:07.870Z,6.17
2019-03-03T03:07:45.608Z,8.07
2019-03-03T03:10:37.325Z,6.50
2019-03-03T03:13:15.448Z,6.30
2019-03-03T03:16:02.752Z,5.90
2019-03-03T03:18:48.119Z,6.37
2019-03-03T03:21:34.358Z,6.57
2019-03-03T03:24:13.111Z,7.33
2019-03-03T03:26:49.625Z,5.83
2019-03-03T03:29:53.325Z,5.70
2019-03-03T03:32:41.889Z,5.30
2019-03-03T03:35:36.498Z,5.80
2019-03-03T03:38:26.345Z,5.87
2019-03-03T03:41:10.616Z,5.80
2019-03-03T03:43:57.813Z,6.00
2019-03-03T03:46:58.514Z,5.23
2019-03-03T03:49:43.226Z,5.17
2019-03-03T03:52:31.891Z,5.40
2019-03-03T03:55:26.386Z,5.80
2019-03-03T03:58:13.446Z,5.70
2019-03-03T04:01:00.864Z,5.50
2019-03-03T04:04:02.004Z,5.60
2019-03-03T04:06:37.948Z,5.23
2019-03-03T04:09:31.793Z,5.63
2019-03-03T04:12:20.293Z,5.97
2019-03-03T04:15:01.379Z,6.40
2019-03-03T04:17:44.324Z,6.27
2019-03-03T04:20:42.060Z,6.00
2019-03-03T04:23:39.360Z,5.80
2019-03-03T04:26:33.983Z,6.10
2019-03-03T04:29:21.084Z,6.30
2019-03-03T04:31:57.812Z,6.13
2019-03-03T04:34:52.471Z,5.87
2019-03-03T04:37:56.192Z,6.30
2019-03-03T04:40:56.708Z,5.80
2019-03-03T04:43:43.726Z,6.33
2019-03-03T04:46:32.280Z,5.70
2019-03-03T04:49:23.516Z,6.40
2019-03-03T04:52:18.971Z,6.33
2019-03-03T04:55:05.854Z,6.13
2019-03-03T04:57:57.373Z,6.53
2019-03-03T05:00:44.821Z,6.37
2019-03-03T05:03:39.529Z,5.70
2019-03-03T05:06:30.941Z,7.00
2019-03-03T05:09:09.655Z,6.87
2019-03-03T05:12:26.345Z,7.00
2019-03-03T05:14:59.940Z,6.20
2019-03-03T05:17:42.549Z,6.57
2019-03-03T05:20:12.422Z,5.80
2019-03-03T05:22:42.355Z,5.53
2019-03-03T05:25:11.879Z,5.70
2019-03-03T05:27:41.567Z,6.13
2019-03-03T05:30:12.439Z,5.30
2019-03-03T05:32:42.085Z,4.87
2019-03-03T05:35:11.672Z,5.43
2019-03-03T05:37:41.330Z,5.00
2019-03-03T05:40:10.876Z,5.13
2019-03-03T05:42:40.553Z,4.90
2019-03-03T05:45:10.059Z,5.70
2019-03-03T05:47:39.690Z,4.70
2019-03-03T05:50:09.304Z,4.83
2019-03-03T05:52:38.870Z,4.20
2019-03-03T05:55:10.068Z,4.10
2019-03-03T05:57:39.639Z,5.03
2019-03-03T06:00:10.198Z,4.57
2019-03-03T06:02:39.768Z,4.40
2019-03-03T06:05:09.402Z,4.30
2019-03-03T06:07:39.003Z,4.43
2019-03-03T06:10:08.755Z,4.73
2019-03-03T06:12:38.323Z,4.17
2019-03-03T06:15:09.379Z,4.50
2019-03-03T06:17:38.943Z,4.43
2019-03-03T06:20:09.947Z,4.33
2019-03-03T06:22:39.516Z,4.47
2019-03-03T06:25:09.531Z,4.80
2019-03-03T06:27:39.192Z,5.00
2019-03-03T06:30:10.600Z,4.30
2019-03-03T06:32:40.188Z,4.30
2019-03-03T06:35:10.339Z,4.13
2019-03-03T06:37:40.335Z,5.33
2019-03-03T06:40:10.498Z,4.77
2019-03-03T06:42:40.180Z,4.60
2019-03-03T06:45:10.579Z,4.73
2019-03-03T06:47:40.300Z,6.20
2019-03-03T06:50:11.454Z,4.93
2019-03-03T06:52:41.147Z,4.20
2019-03-03T06:55:11.016Z,4.73
2019-03-03T06:57:40.618Z,4.50
2019-03-03T07:00:13.636Z,3.93
2019-03-03T07:02:43.376Z,3.60
2019-03-03T07:05:12.959Z,3.87
2019-03-03T07:07:42.700Z,3.00
2019-03-03T07:10:13.512Z,3.40
2019-03-03T07:12:43.239Z,3.17
2019-03-03T07:15:14.776Z,3.30
2019-03-03T07:20:20.627Z,3.50
2019-03-03T07:22:50.180Z,3.47
2019-03-03T07:27:55.434Z,3.47
2019-03-03T07:30:25.009Z,3.20
2019-03-03T07:33:12.073Z,2.90
2019-03-03T07:35:41.627Z,3.27
2019-03-03T07:38:11.136Z,3.07
2019-03-03T07:40:40.680Z,3.00
2019-03-03T07:43:10.195Z,3.43
2019-03-03T07:45:39.725Z,3.17
2019-03-03T07:48:09.224Z,2.67
2019-03-03T07:50:38.759Z,3.20
2019-03-03T07:53:08.264Z,3.00
2019-03-03T07:55:37.825Z,2.67
2019-03-03T07:58:07.361Z,2.93
2019-03-03T08:00:37.018Z,2.20
2019-03-03T08:03:07.625Z,2.77
2019-03-03T08:05:37.153Z,2.50
2019-03-03T08:08:06.708Z,2.57
2019-03-03T08:10:37.348Z,3.50
2019-03-03T08:13:09.457Z,2.77
2019-03-03T08:15:38.049Z,3.33
2019-03-03T08:18:07.596Z,2.40
2019-03-03T08:20:37.103Z,3.10
2019-03-03T08:23:06.971Z,3.10
2019-03-03T08:25:36.491Z,2.87
2019-03-03T08:28:06.126Z,2.70
2019-03-03T08:30:35.592Z,2.43
2019-03-03T08:33:05.441Z,2.20
2019-03-03T08:35:34.936Z,3.00
2019-03-03T08:38:04.502Z,3.20
2019-03-03T08:40:33.997Z,2.33
2019-03-03T08:43:07.545Z,2.10
2019-03-03T08:45:49.920Z,2.13
2019-03-03T08:48:37.014Z,3.40
2019-03-03T08:51:28.352Z,2.83
2019-03-03T08:54:25.816Z,2.60
2019-03-03T08:57:18.895Z,2.70
2019-03-03T09:00:00.811Z,2.47
2019-03-03T09:02:38.591Z,3.20
2019-03-03T09:05:27.431Z,2.37
2019-03-03T09:08:27.802Z,2.90
2019-03-03T09:11:14.912Z,2.43
2019-03-03T09:14:09.303Z,2.40
2019-03-03T09:16:53.504Z,2.60
2019-03-03T09:19:34.678Z,2.37
2019-03-03T09:22:11.885Z,2.07
2019-03-03T09:25:00.680Z,2.40
2019-03-03T09:27:58.053Z,2.47
2019-03-03T09:30:49.543Z,2.20
2019-03-03T09:33:49.404Z,2.70
2019-03-03T09:36:34.615Z,2.30
2019-03-03T09:39:21.936Z,2.37
2019-03-03T09:42:06.747Z,2.20
2019-03-03T09:45:04.160Z,2.67
2019-03-03T09:47:55.401Z,2.70
2019-03-03T09:50:32.498Z,2.83
2019-03-03T09:53:21.021Z,4.47
2019-03-03T09:56:07.717Z,2.30
2019-03-03T09:59:11.594Z,2.03
2019-03-03T10:01:56.947Z,2.17
2019-03-03T10:04:44.202Z,2.07
2019-03-03T10:07:29.047Z,2.73
2019-03-03T10:10:06.624Z,3.00
2019-03-03T10:12:55.173Z,2.57
2019-03-03T10:15:32.548Z,2.10
2019-03-03T10:18:23.783Z,2.00
2019-03-03T10:21:03.267Z,2.13
2019-03-03T10:23:51.889Z,1.87
2019-03-03T10:26:49.545Z,2.20
2019-03-03T10:29:29.700Z,2.20
2019-03-03T10:32:17.483Z,2.60
2019-03-03T10:34:56.195Z,2.30
2019-03-03T10:37:43.724Z,2.27
2019-03-03T10:40:35.398Z,2.40
2019-03-03T10:43:17.353Z,1.90
2019-03-03T10:46:05.592Z,2.00
2019-03-03T10:48:57.315Z,2.20
2019-03-03T10:51:54.907Z,1.50
2019-03-03T10:54:58.665Z,2.23
2019-03-03T10:57:53.437Z,2.00
2019-03-03T11:00:43.888Z,1.90
2019-03-03T11:03:35.996Z,1.80
2019-03-03T11:06:27.599Z,2.40
2019-03-03T11:09:13.284Z,1.67
2019-03-03T11:12:01.816Z,1.70
2019-03-03T11:14:43.634Z,2.40
2019-03-03T11:17:25.314Z,1.80
2019-03-03T11:20:13.978Z,1.60
2019-03-03T11:23:03.549Z,2.07
2019-03-03T11:25:48.777Z,2.10
2019-03-03T11:28:36.715Z,2.50
2019-03-03T11:31:14.862Z,2.30
2019-03-03T11:34:09.414Z,2.10
2019-03-03T11:36:48.114Z,2.73
2019-03-03T11:39:36.907Z,3.00
2019-03-03T11:42:22.488Z,2.70
2019-03-03T11:45:13.419Z,3.13
2019-03-03T11:48:04.468Z,2.90
2019-03-03T11:50:55.757Z,3.67
2019-03-03T11:53:44.405Z,3.30
2019-03-03T11:56:36.164Z,3.33
2019-03-03T11:59:25.547Z,4.23
2019-03-03T12:02:17.336Z,2.77
2019-03-03T12:05:04.694Z,2.70
2019-03-03T12:07:53.352Z,3.20
2019-03-03T12:10:47.963Z,2.80
2019-03-03T12:13:25.595Z,3.57
2019-03-03T12:16:21.252Z,2.67
2019-03-03T12:19:03.819Z,2.77
2019-03-03T12:21:47.652Z,3.00
2019-03-03T12:24:26.788Z,4.13
2019-03-03T12:27:15.634Z,3.43
2019-03-03T12:30:01.878Z,4.17
2019-03-03T12:32:41.264Z,3.77
2019-03-03T12:35:32.652Z,3.20
2019-03-03T12:38:15.675Z,3.70
2019-03-03T12:40:55.690Z,4.17
2019-03-03T12:43:40.788Z,3.40
2019-03-03T12:46:30.001Z,3.03
2019-03-03T12:49:21.484Z,2.40
2019-03-03T12:52:10.076Z,2.97
2019-03-03T12:55:03.296Z,3.00
2019-03-03T12:57:51.815Z,2.33
2019-03-03T13:00:39.291Z,3.30
2019-03-03T13:03:37.600Z,2.87
2019-03-03T13:06:12.579Z,2.60
2019-03-03T13:09:09.955Z,2.90
2019-03-03T13:11:57.174Z,2.77
2019-03-03T13:14:51.762Z,3.03
2019-03-03T13:17:52.639Z,3.30
2019-03-03T13:20:34.828Z,2.70
2019-03-03T13:23:13.067Z,2.77
2019-03-03T13:25:56.204Z,3.60
2019-03-03T13:28:50.665Z,3.80
2019-03-03T13:31:42.663Z,3.37
2019-03-03T13:34:30.061Z,3.67
2019-03-03T13:37:08.452Z,3.53
2019-03-03T13:39:53.422Z,2.90
2019-03-03T13:42:57.005Z,3.40
2019-03-03T13:45:29.717Z,3.13
2019-03-03T13:47:59.536Z,4.20
2019-03-03T13:50:29.285Z,3.50
2019-03-03T13:52:59.666Z,3.60
2019-03-03T13:55:29.425Z,2.90
2019-03-03T13:57:59.257Z,3.03
2019-03-03T14:00:29.226Z,3.83
2019-03-03T14:02:58.846Z,3.10
2019-03-03T14:05:28.655Z,3.03
2019-03-03T14:07:59.096Z,3.30
2019-03-03T14:10:28.798Z,3.20
2019-03-03T14:12:59.497Z,3.60
2019-03-03T14:15:30.098Z,2.97
2019-03-03T14:17:59.772Z,3.30
2019-03-03T14:20:29.880Z,3.50
2019-03-03T14:23:00.130Z,2.90
2019-03-03T14:25:29.731Z,3.60
2019-03-03T14:27:59.740Z,3.87
2019-03-03T14:30:29.421Z,4.10
2019-03-03T14:32:59.752Z,4.30
2019-03-03T14:35:29.489Z,2.97
2019-03-03T14:37:59.725Z,3.37
2019-03-03T14:40:30.343Z,3.53
2019-03-03T14:43:00.561Z,2.63
2019-03-03T14:45:31.218Z,3.07
2019-03-03T14:48:01.572Z,2.67
2019-03-03T14:50:31.282Z,3.40
2019-03-03T14:53:01.745Z,2.90
2019-03-03T14:55:32.174Z,3.10
2019-03-03T14:58:02.507Z,2.93
2019-03-03T15:00:33.901Z,3.37
2019-03-03T15:03:05.956Z,3.40
2019-03-03T15:05:36.644Z,3.03
2019-03-03T15:08:07.527Z,2.90
2019-03-03T15:10:37.352Z,3.83
2019-03-03T15:13:08.798Z,4.40
2019-03-03T15:15:39.078Z,2.80
2019-03-03T15:18:10.091Z,2.63
2019-03-03T15:20:39.975Z,3.23
2019-03-03T15:23:11.028Z,3.67
2019-03-03T15:25:40.687Z,3.10
2019-03-03T15:28:11.379Z,3.00
2019-03-03T15:30:41.149Z,3.23
2019-03-03T15:33:11.646Z,3.47
2019-03-03T15:35:41.495Z,3.00
2019-03-03T15:38:11.884Z,2.57
2019-03-03T15:40:41.598Z,3.13
2019-03-03T15:43:13.527Z,3.00
2019-03-03T15:45:44.042Z,2.70
2019-03-03T15:48:14.462Z,2.97
2019-03-03T15:50:44.135Z,2.60
2019-03-03T15:53:14.138Z,3.10
2019-03-03T15:55:44.464Z,3.10
2019-03-03T15:58:15.004Z,3.53
2019-03-03T16:00:44.768Z,3.10
2019-03-03T16:03:15.232Z,3.43
2019-03-03T16:05:45.667Z,3.20
2019-03-03T16:08:15.936Z,4.00
2019-03-03T16:10:45.664Z,3.10
2019-03-03T16:13:15.402Z,2.90
2019-03-03T16:15:45.535Z,3.03
2019-03-03T16:18:16.512Z,2.67
2019-03-03T16:20:46.149Z,3.23
2019-03-03T16:23:16.241Z,3.50
2019-03-03T16:25:46.166Z,3.00
2019-03-03T16:28:16.543Z,3.70
2019-03-03T16:30:46.243Z,3.10
2019-03-03T16:33:20.621Z,3.40
2019-03-03T16:35:48.622Z,4.70
2019-03-03T16:38:19.022Z,4.60
2019-03-03T16:40:48.761Z,3.30
2019-03-03T16:43:18.541Z,3.20
2019-03-03T16:45:48.397Z,3.23
2019-03-03T16:48:18.860Z,3.40
2019-03-03T16:50:48.752Z,3.30
2019-03-03T16:53:19.172Z,3.30
2019-03-03T16:55:49.142Z,2.80
2019-03-03T16:58:18.854Z,2.63
2019-03-03T17:00:48.897Z,2.97
2019-03-03T17:03:19.180Z,3.63
2019-03-03T17:05:49.080Z,3.63
2019-03-03T17:08:19.563Z,4.00
2019-03-03T17:10:49.421Z,3.00
2019-03-03T17:13:19.581Z,2.70
2019-03-03T17:15:49.311Z,3.00
2019-03-03T17:18:19.405Z,4.20
2019-03-03T17:20:49.103Z,3.53
2019-03-03T17:23:19.379Z,3.60
2019-03-03T17:25:49.082Z,4.10
2019-03-03T17:28:19.900Z,3.43
2019-03-03T17:30:49.520Z,3.70
2019-03-03T17:33:23.057Z,4.20
2019-03-03T17:35:52.880Z,3.80
2019-03-03T17:38:22.456Z,3.60
2019-03-03T17:40:52.305Z,3.63
2019-03-03T17:43:21.948Z,3.50
2019-03-03T17:45:51.787Z,2.70
2019-03-03T17:48:21.387Z,3.33
2019-03-03T17:50:51.104Z,2.65
2019-03-03T17:53:20.701Z,3.43
2019-03-03T17:55:50.522Z,3.33
2019-03-03T17:58:20.224Z,3.20
2019-03-03T18:00:50.181Z,3.57
2019-03-03T18:03:19.862Z,3.57
2019-03-03T18:05:49.563Z,4.90
2019-03-03T18:08:19.329Z,3.90
2019-03-03T18:10:49.601Z,4.33
2019-03-03T18:13:20.127Z,5.70
2019-03-03T18:15:49.841Z,5.00
2019-03-03T18:18:19.503Z,5.20
2019-03-03T18:20:49.808Z,5.07
2019-03-03T18:23:20.291Z,4.37
2019-03-03T18:25:50.045Z,4.00
2019-03-03T18:28:19.827Z,4.23
2019-03-03T18:30:49.586Z,3.97
2019-03-03T18:33:19.843Z,4.10
2019-03-03T18:35:49.552Z,3.70
2019-03-03T18:38:19.275Z,4.00
2019-03-03T18:40:48.949Z,3.83
2019-03-03T18:43:18.671Z,4.63
2019-03-03T18:45:48.335Z,4.83
2019-03-03T18:48:18.030Z,5.00
2019-03-03T18:50:47.718Z,4.10
2019-03-03T18:53:17.585Z,4.70
2019-03-03T18:55:47.228Z,3.60
2019-03-03T18:58:16.915Z,3.90
2019-03-03T19:00:46.745Z,4.33
2019-03-03T19:03:16.489Z,4.10
2019-03-03T19:05:55.180Z,4.63
2019-03-03T19:08:17.847Z,4.57
2019-03-03T19:10:47.488Z,4.27
2019-03-03T19:13:17.199Z,4.33
2019-03-03T19:15:46.919Z,3.57
2019-03-03T19:18:16.792Z,4.27
2019-03-03T19:20:46.468Z,5.37
2019-03-03T19:23:16.180Z,5.03
2019-03-03T19:25:45.861Z,5.10
2019-03-03T19:28:15.420Z,5.53
2019-03-03T19:30:45.073Z,5.60
2019-03-03T19:33:19.003Z,5.40
2019-03-03T19:35:48.790Z,5.10
2019-03-03T19:38:18.440Z,5.60
2019-03-03T19:40:48.162Z,5.07
2019-03-03T19:43:18.695Z,5.70
2019-03-03T19:45:49.102Z,4.93
2019-03-03T19:48:19.108Z,4.90
2019-03-03T19:50:48.781Z,4.97
2019-03-03T19:53:18.521Z,5.20
2019-03-03T19:55:48.371Z,5.03
2019-03-03T19:58:18.125Z,4.60
2019-03-03T20:00:48.670Z,4.50
2019-03-03T20:03:19.108Z,5.17
2019-03-03T20:05:48.911Z,5.20
2019-03-03T20:08:18.621Z,5.10
2019-03-03T20:10:48.329Z,5.37
2019-03-03T20:13:18.787Z,4.93
2019-03-03T20:15:48.435Z,5.23
2019-03-03T20:18:18.572Z,6.97
2019-03-03T20:20:48.313Z,6.43
2019-03-03T20:23:18.148Z,5.70
2019-03-03T20:25:48.156Z,5.33
2019-03-03T20:28:17.804Z,5.47
2019-03-03T20:30:47.457Z,5.47
2019-03-03T20:33:17.240Z,6.03
2019-03-03T20:35:46.971Z,4.50
2019-03-03T20:38:16.610Z,5.33
2019-03-03T20:40:46.284Z,4.67
2019-03-03T20:43:16.600Z,5.60
2019-03-03T20:45:46.283Z,5.00
2019-03-03T20:48:15.959Z,4.13
2019-03-03T20:50:45.646Z,4.07
2019-03-03T20:53:15.996Z,4.83
2019-03-03T20:55:45.769Z,3.50
2019-03-03T20:58:16.093Z,4.00
2019-03-03T21:00:46.083Z,3.27
2019-03-03T21:03:16.654Z,4.20
2019-03-03T21:05:46.453Z,3.23
2019-03-03T21:08:17.076Z,3.37
2019-03-03T21:10:46.745Z,4.37
2019-03-03T21:13:17.246Z,4.20
2019-03-03T21:15:47.136Z,3.73
2019-03-03T21:18:17.640Z,5.07
2019-03-03T21:20:48.294Z,3.60
2019-03-03T21:23:18.765Z,4.00
2019-03-03T21:25:48.467Z,2.87
2019-03-03T21:28:18.898Z,4.47
2019-03-03T21:30:48.539Z,3.30
2019-03-03T21:33:18.840Z,3.90
2019-03-03T21:35:49.228Z,3.57
2019-03-03T21:38:19.666Z,3.27
2019-03-03T21:40:49.291Z,3.20
2019-03-03T21:43:20.958Z,4.57
2019-03-03T21:45:50.898Z,3.20
2019-03-03T21:48:21.085Z,4.30
2019-03-03T21:50:50.744Z,2.80
2019-03-03T21:53:21.306Z,3.43
2019-03-03T21:55:50.823Z,3.40
2019-03-03T21:58:21.217Z,3.20
2019-03-03T22:00:50.806Z,2.80
2019-03-03T22:03:21.290Z,3.77
2019-03-03T22:05:50.964Z,2.93
2019-03-03T22:08:21.295Z,4.60
2019-03-03T22:10:51.025Z,3.43
2019-03-03T22:13:21.522Z,3.70
2019-03-03T22:15:51.402Z,3.13
2019-03-03T22:18:21.708Z,4.33
2019-03-03T22:20:51.376Z,2.87
2019-03-03T22:23:21.785Z,3.73
2019-03-03T22:25:51.500Z,3.10
2019-03-03T22:28:21.115Z,4.60
2019-03-03T22:30:50.687Z,2.70
2019-03-03T22:33:21.018Z,3.73
2019-03-03T22:35:50.954Z,2.73
2019-03-03T22:38:21.329Z,4.03
2019-03-03T22:40:51.234Z,2.90
2019-03-03T22:43:21.553Z,3.37
2019-03-03T22:45:51.458Z,2.87
2019-03-03T22:48:21.729Z,3.53
2019-03-03T22:50:51.328Z,3.53
2019-03-03T22:53:21.660Z,3.40
2019-03-03T22:55:51.266Z,3.53
2019-03-03T22:58:21.563Z,3.13
2019-03-03T23:01:13.899Z,3.00
2019-03-03T23:03:51.183Z,2.63
2019-03-03T23:06:27.872Z,3.00
2019-03-03T23:09:47.309Z,2.50
2019-03-03T23:12:48.783Z,2.63
2019-03-03T23:15:26.466Z,3.00
2019-03-03T23:18:27.971Z,3.23
2019-03-03T23:21:23.901Z,2.60
2019-03-03T23:24:21.324Z,2.80
2019-03-03T23:26:50.882Z,3.37
2019-03-03T23:29:21.191Z,2.77
2019-03-03T23:31:50.903Z,2.97
2019-03-03T23:34:20.487Z,3.03
2019-03-03T23:36:50.137Z,2.50
2019-03-03T23:39:19.859Z,2.83
2019-03-03T23:41:49.658Z,2.80
2019-03-03T23:44:19.477Z,2.93
2019-03-03T23:46:49.095Z,2.93
2019-03-03T23:49:18.769Z,2.90
2019-03-03T23:51:48.437Z,2.60
2019-03-03T23:54:18.251Z,2.83
2019-03-03T23:56:47.911Z,2.70
2019-03-03T23:59:17.523Z,2.70
